< Cyclone 202115 2021 Season
Cyclone 202117 (Niran)
General InformationTrack Information on Google MapsDetailed Wind Information || ResourceGoogle EarthGE AnimationAtom FeedGeoJSON
Year Month Day Hour Lat. Long. Pressure (hPa) Wind (kt) Class Image Chart
2021 2 27 00 -15.7 149.2 1002 25 2 Image --
2021 2 27 06 -15.6 149.9 1000 25 2 Image --
2021 2 27 12 -15.8 149.7 1000 25 2 Image --
2021 2 27 18 -16.1 148.4 1000 25 2 Image --
2021 2 28 00 -16.7 148.3 999 25 2 Image --
2021 2 28 06 -17.1 148.1 998 30 2 Image --
2021 2 28 12 -17.1 148.2 998 35 3 Image --
2021 2 28 18 -17.2 148.1 995 35 3 Image --
2021 3 1 00 -17.4 147.3 998 35 3 Image --
2021 3 1 06 -16.6 146.6 994 35 3 Image --
2021 3 1 12 -16.0 146.9 993 40 3 Image --
2021 3 1 18 -15.3 147.6 984 40 3 Image --
2021 3 2 00 -15.0 147.5 986 45 3 Image --
2021 3 2 06 -14.6 147.7 982 50 4 Image --
2021 3 2 12 -14.5 147.8 982 50 4 Image --
2021 3 2 18 -14.4 147.9 982 50 4 Image --
2021 3 3 00 -14.6 147.7 978 55 4 Image --
2021 3 3 06 -14.7 147.9 976 60 4 Image --
2021 3 3 12 -14.7 148.0 976 60 4 Image --
2021 3 3 18 -14.8 148.2 974 60 4 Image --
2021 3 4 00 -15.0 148.6 968 70 5 Image --
2021 3 4 06 -15.3 149.5 961 80 5 Image --
2021 3 4 12 -15.3 150.6 961 80 5 Image --
2021 3 4 18 -15.7 152.5 958 85 5 Image --
2021 3 5 00 -16.5 154.4 954 90 5 Image --
2021 3 5 06 -17.6 156.9 944 100 5 Image --
2021 3 5 12 -18.6 159.1 931 110 5 Image --
2021 3 5 18 -19.8 161.4 931 110 5 Image --
< Cyclone 202115 2021 Season

Help